Time;durP1;ratioP1;P1;durP2;ratioP2;P2;SDS_P1;SDS_P2;PMS_P1;PMS_P2;Temp;Humidity;BMP_temperature;BMP_pressure;BME280_temperature;BME280_humidity;BME280_pressure;Samples;Min_cycle;Max_cycle;Signal;HPM_P1;HPM_P2
2023/02/11 00:01:43;;;;;;;60.15;30.90;;;-3.00;98.00;;;;;;5035380;28;20049;-67
2023/02/11 00:04:08;;;;;;;79.53;39.72;;;-3.10;98.00;;;;;;5035115;28;20038;-66
2023/02/11 00:06:35;;;;;;;47.30;26.02;;;-3.20;98.00;;;;;;5035373;28;20032;-67
2023/02/11 00:09:01;;;;;;;54.70;26.45;;;-3.20;98.00;;;;;;5035151;28;20418;-67
2023/02/11 00:11:30;;;;;;;70.15;35.08;;;-3.20;98.00;;;;;;5034105;28;20028;-66
2023/02/11 00:14:01;;;;;;;42.38;24.02;;;-3.20;98.00;;;;;;5035605;28;20105;-67
2023/02/11 00:16:28;;;;;;;47.13;24.83;;;-3.20;98.00;;;;;;5033465;28;20364;-67
2023/02/11 00:18:54;;;;;;;76.15;37.17;;;-3.30;98.00;;;;;;5033645;28;20445;-67
2023/02/11 00:21:24;;;;;;;103.78;49.03;;;-3.30;98.00;;;;;;5034505;28;20054;-67
2023/02/11 00:23:50;;;;;;;45.78;25.20;;;-3.40;98.00;;;;;;5033569;28;20345;-67
2023/02/11 00:26:20;;;;;;;50.10;26.58;;;-3.40;98.00;;;;;;5033878;28;20075;-66
2023/02/11 00:28:47;;;;;;;51.15;26.23;;;-3.30;98.00;;;;;;5033078;28;20025;-67
2023/02/11 00:31:14;;;;;;;46.42;24.73;;;-3.30;98.00;;;;;;5029135;28;20369;-66
2023/02/11 00:33:40;;;;;;;48.92;24.77;;;-3.40;98.00;;;;;;5022488;28;20034;-67
2023/02/11 00:36:08;;;;;;;50.65;26.33;;;-3.50;98.00;;;;;;5035650;28;20037;-65
2023/02/11 00:38:42;;;;;;;46.17;24.95;;;-3.60;98.00;;;;;;5033029;28;20029;-66
2023/02/11 00:41:08;;;;;;;47.85;24.92;;;-3.60;98.00;;;;;;5033240;28;20021;-66
2023/02/11 00:43:34;;;;;;;51.17;26.08;;;-3.70;98.00;;;;;;5034759;28;20464;-66
2023/02/11 00:46:00;;;;;;;43.08;22.15;;;-3.60;98.00;;;;;;5031827;28;20053;-66
2023/02/11 00:48:26;;;;;;;48.33;26.65;;;-3.70;98.00;;;;;;5023866;28;20351;-67
2023/02/11 00:50:51;;;;;;;45.30;23.83;;;-3.70;98.00;;;;;;5032276;28;20034;-67
2023/02/11 00:53:17;;;;;;;41.63;22.98;;;-3.70;98.00;;;;;;5033531;28;20044;-65
2023/02/11 00:55:42;;;;;;;46.10;24.20;;;-3.60;98.00;;;;;;5031126;28;20072;-66
2023/02/11 00:58:08;;;;;;;53.63;26.10;;;-3.40;98.00;;;;;;5033202;28;20034;-66
2023/02/11 01:00:33;;;;;;;38.88;20.88;;;-3.30;98.00;;;;;;5032997;28;20025;-66
2023/02/11 01:02:59;;;;;;;41.47;20.58;;;-3.30;98.00;;;;;;5017051;28;20108;-65
2023/02/11 01:05:25;;;;;;;46.25;23.88;;;-3.40;98.00;;;;;;5032225;28;20041;-66
2023/02/11 01:07:50;;;;;;;43.47;22.38;;;-3.30;98.00;;;;;;5029910;28;20171;-66
2023/02/11 01:10:16;;;;;;;44.13;22.50;;;-3.30;98.00;;;;;;5031612;28;20032;-66
2023/02/11 01:12:42;;;;;;;48.42;23.25;;;-3.30;98.00;;;;;;5012141;28;20026;-66
2023/02/11 01:15:08;;;;;;;42.78;22.83;;;-3.40;98.00;;;;;;5030410;28;20082;-66
2023/02/11 01:17:35;;;;;;;43.22;23.48;;;-3.40;98.00;;;;;;5034424;28;20033;-65
2023/02/11 01:20:10;;;;;;;40.10;22.63;;;-3.30;98.00;;;;;;5027702;28;20080;-66
2023/02/11 01:22:38;;;;;;;46.97;24.38;;;-3.40;98.00;;;;;;5008541;28;20022;-66
2023/02/11 01:25:04;;;;;;;45.40;24.55;;;-3.30;98.00;;;;;;5033989;28;20028;-66
2023/02/11 01:27:30;;;;;;;47.25;24.48;;;-3.20;98.00;;;;;;5034351;28;20078;-65
2023/02/11 01:29:56;;;;;;;50.72;26.88;;;-3.20;98.00;;;;;;5030673;28;20048;-66
2023/02/11 01:32:21;;;;;;;48.38;25.63;;;-3.20;98.00;;;;;;5033662;28;20108;-66
2023/02/11 01:34:47;;;;;;;49.88;25.95;;;-3.20;98.00;;;;;;5034651;28;20064;-66
2023/02/11 01:37:12;;;;;;;46.92;25.05;;;-3.20;98.00;;;;;;5027306;28;20029;-65
2023/02/11 01:39:38;;;;;;;48.08;25.67;;;-3.20;98.00;;;;;;5037715;28;20026;-65
2023/02/11 01:42:04;;;;;;;54.88;28.08;;;-3.40;98.00;;;;;;5038455;28;20033;-65
2023/02/11 01:44:39;;;;;;;60.17;33.35;;;-3.40;98.00;;;;;;5034397;28;20029;-65
2023/02/11 01:47:08;;;;;;;50.33;25.95;;;-3.50;98.00;;;;;;5034447;28;20037;-65
2023/02/11 01:49:38;;;;;;;51.88;28.45;;;-3.50;98.00;;;;;;5037073;28;20060;-65
2023/02/11 01:52:25;;;;;;;58.70;30.95;;;-3.40;98.00;;;;;;5035519;28;20034;-65
2023/02/11 01:57:43;;;;;;;63.90;30.20;;;-3.20;98.00;;;;;;5037412;28;20040;-66
2023/02/11 02:00:19;;;;;;;46.65;25.23;;;-3.10;98.00;;;;;;5035234;28;20296;-66
2023/02/11 02:02:57;;;;;;;48.55;26.83;;;-3.30;98.00;;;;;;5037882;28;20021;-66
2023/02/11 02:05:44;;;;;;;56.38;29.65;;;-3.40;98.00;;;;;;5036294;28;20026;-65
2023/02/11 02:08:28;;;;;;;56.10;29.02;;;-3.50;98.00;;;;;;5038536;28;20032;-66
2023/02/11 02:10:55;;;;;;;55.92;30.80;;;-3.50;98.00;;;;;;5037880;28;20053;-66
2023/02/11 02:13:22;;;;;;;59.88;30.27;;;-3.40;98.00;;;;;;5004710;28;20739;-65
2023/02/11 02:15:54;;;;;;;55.83;27.83;;;-3.40;98.00;;;;;;5034027;28;20322;-65
2023/02/11 02:18:55;;;;;;;54.35;30.05;;;-3.40;98.00;;;;;;5022397;28;20033;-65
2023/02/11 02:21:42;;;;;;;57.20;30.83;;;-3.50;97.70;;;;;;5038214;28;20025;-65
2023/02/11 02:24:14;;;;;;;53.08;29.25;;;-3.60;98.00;;;;;;5030909;28;20029;-65
2023/02/11 02:27:17;;;;;;;61.15;30.88;;;-3.60;97.30;;;;;;5035019;28;20116;-64
2023/02/11 02:30:20;;;;;;;58.13;31.15;;;-3.50;96.70;;;;;;5032270;28;20108;-64
2023/02/11 02:32:58;;;;;;;62.20;30.58;;;-3.50;97.10;;;;;;5035264;28;20414;-67
2023/02/11 02:35:45;;;;;;;51.42;28.45;;;-3.50;97.70;;;;;;5020421;28;20029;-66
2023/02/11 02:38:15;;;;;;;60.15;31.25;;;-3.60;98.00;;;;;;5036693;28;20061;-65
2023/02/11 02:40:47;;;;;;;61.45;32.13;;;-3.60;97.00;;;;;;5035212;28;20022;-66
2023/02/11 02:43:14;;;;;;;60.22;30.40;;;-3.50;95.90;;;;;;5036189;28;20051;-64
2023/02/11 02:45:39;;;;;;;58.03;31.52;;;-3.40;96.00;;;;;;5022395;28;20022;-65
2023/02/11 02:48:05;;;;;;;59.90;29.95;;;-3.40;96.70;;;;;;5033670;28;20029;-65
2023/02/11 02:50:35;;;;;;;59.83;31.40;;;-3.40;97.10;;;;;;5036132;28;20036;-67
2023/02/11 02:53:19;;;;;;;57.97;31.05;;;-3.30;96.90;;;;;;5037438;28;20040;-66
2023/02/11 02:55:53;;;;;;;;;;;-3.30;96.60;;;;;;5037787;28;20041;-66
2023/02/11 02:58:39;;;;;;;54.15;28.13;;;-3.20;96.40;;;;;;5037111;28;19964;-66
2023/02/11 03:01:24;;;;;;;56.05;29.92;;;-3.30;97.30;;;;;;5031873;28;20044;-66
2023/02/11 03:04:09;;;;;;;54.55;28.83;;;-3.30;98.00;;;;;;5032038;28;20033;-66
2023/02/11 03:06:56;;;;;;;53.67;29.13;;;-3.30;98.00;;;;;;5029020;28;20034;-67
2023/02/11 03:09:27;;;;;;;61.97;31.50;;;-3.20;97.10;;;;;;5035014;28;20036;-66
2023/02/11 03:11:52;;;;;;;59.90;30.20;;;-3.20;97.10;;;;;;5035448;28;20034;-66
2023/02/11 03:14:20;;;;;;;51.88;28.27;;;-3.20;96.30;;;;;;5033336;28;20080;-66
2023/02/11 03:16:49;;;;;;;50.25;27.40;;;-3.10;97.30;;;;;;5036778;28;20326;-67
2023/02/11 03:19:21;;;;;;;56.00;28.88;;;-3.00;98.00;;;;;;5036005;28;20029;-66
2023/02/11 03:21:48;;;;;;;52.45;28.80;;;-2.80;98.00;;;;;;5033988;28;20025;-66
2023/02/11 03:24:24;;;;;;;47.78;26.75;;;-2.80;98.00;;;;;;5036411;28;20032;-66
2023/02/11 03:26:53;;;;;;;56.75;30.27;;;-2.80;98.00;;;;;;5033467;28;20410;-66
2023/02/11 03:29:31;;;;;;;52.97;29.92;;;-2.80;98.00;;;;;;5034586;28;20157;-65
2023/02/11 03:32:38;;;;;;;58.78;30.35;;;-2.80;97.80;;;;;;5034120;28;20131;-66
2023/02/11 03:35:12;;;;;;;50.13;27.33;;;-2.80;98.00;;;;;;5009909;28;20041;-66
2023/02/11 03:37:49;;;;;;;57.50;29.13;;;-3.00;98.00;;;;;;5036495;28;20057;-66
2023/02/11 03:40:20;;;;;;;52.22;29.92;;;-3.10;98.00;;;;;;5017323;28;20489;-66
2023/02/11 03:42:51;;;;;;;51.90;28.35;;;-3.20;97.20;;;;;;5033829;28;20568;-65
2023/02/11 03:45:20;;;;;;;55.70;28.77;;;-3.00;97.30;;;;;;5026544;28;20033;-65
2023/02/11 03:47:53;;;;;;;53.85;29.00;;;-2.90;97.90;;;;;;5033986;28;20377;-66
2023/02/11 03:50:20;;;;;;;57.88;29.35;;;-2.80;98.00;;;;;;5024252;28;20036;-66
2023/02/11 03:52:48;;;;;;;54.75;28.98;;;-2.80;98.00;;;;;;5035123;28;20087;-66
2023/02/11 03:55:19;;;;;;;54.70;29.65;;;-2.80;98.00;;;;;;5006250;28;20049;-66
2023/02/11 03:57:46;;;;;;;55.22;30.02;;;-2.70;98.00;;;;;;5036109;28;20045;-66
2023/02/11 04:00:12;;;;;;;52.63;28.70;;;-2.70;98.00;;;;;;5034028;28;20044;-66
2023/02/11 04:02:39;;;;;;;57.80;30.83;;;-2.70;98.00;;;;;;5035216;28;20064;-66
2023/02/11 04:05:07;;;;;;;53.58;28.83;;;-2.70;98.00;;;;;;5033658;28;20021;-66
2023/02/11 04:07:32;;;;;;;50.88;28.15;;;-2.70;97.90;;;;;;5036509;28;20104;-66
2023/02/11 04:09:58;;;;;;;55.13;29.08;;;-2.60;98.00;;;;;;5035399;28;20182;-66
2023/02/11 04:12:24;;;;;;;55.40;29.10;;;-2.80;98.00;;;;;;5035161;28;20026;-66
2023/02/11 04:14:50;;;;;;;50.50;28.00;;;-2.80;98.00;;;;;;5034250;28;20034;-66
2023/02/11 04:17:16;;;;;;;52.70;28.02;;;-2.80;97.90;;;;;;5034916;28;20065;-66
2023/02/11 04:19:41;;;;;;;50.17;27.38;;;-2.80;97.60;;;;;;5034138;28;20120;-66
2023/02/11 04:22:07;;;;;;;51.92;29.30;;;-2.80;97.80;;;;;;5035406;28;20033;-66
2023/02/11 04:24:33;;;;;;;53.88;28.55;;;-2.70;97.80;;;;;;5034848;28;20132;-66
2023/02/11 04:26:59;;;;;;;50.65;27.20;;;-2.70;97.50;;;;;;5033247;28;20334;-66
2023/02/11 04:29:24;;;;;;;49.30;26.40;;;-2.60;97.90;;;;;;5028668;28;20379;-66
2023/02/11 04:31:50;;;;;;;47.22;27.05;;;-2.60;98.00;;;;;;5031592;28;20029;-65
2023/02/11 04:34:17;;;;;;;48.05;27.45;;;-2.40;98.00;;;;;;5032167;28;20029;-66
2023/02/11 04:36:42;;;;;;;47.83;25.05;;;-2.40;98.00;;;;;;5034500;28;20058;-66
2023/02/11 04:39:08;;;;;;;46.38;26.80;;;-2.30;98.00;;;;;;5033113;28;20126;-66
2023/02/11 04:41:33;;;;;;;43.63;24.10;;;-2.30;98.00;;;;;;5034244;28;20096;-66
2023/02/11 04:43:59;;;;;;;43.13;25.25;;;-2.50;98.00;;;;;;5032116;28;20025;-65
2023/02/11 04:46:24;;;;;;;47.47;24.40;;;-2.60;98.00;;;;;;5033080;28;20033;-65
2023/02/11 04:48:50;;;;;;;45.80;25.92;;;-2.60;98.00;;;;;;5031673;28;20034;-66
2023/02/11 04:51:16;;;;;;;44.38;24.88;;;-2.60;97.70;;;;;;5030991;28;20033;-66
2023/02/11 04:53:42;;;;;;;48.80;26.15;;;-2.30;97.70;;;;;;5034421;28;20029;-66
2023/02/11 04:56:07;;;;;;;43.40;25.05;;;-2.10;98.00;;;;;;5032863;28;20041;-66
2023/02/11 04:58:33;;;;;;;45.72;24.83;;;-1.90;98.00;;;;;;5017177;28;20144;-66
2023/02/11 05:01:09;;;;;;;47.35;26.15;;;-1.80;98.00;;;;;;5025136;28;20021;-66
2023/02/11 05:03:36;;;;;;;46.58;25.08;;;-2.00;98.00;;;;;;5017343;28;20034;-66
2023/02/11 05:06:02;;;;;;;46.10;24.77;;;-2.20;98.00;;;;;;5032962;28;20059;-66
2023/02/11 05:08:27;;;;;;;41.97;23.92;;;-2.30;98.00;;;;;;5033604;28;20326;-66
2023/02/11 05:10:53;;;;;;;47.53;24.98;;;-2.40;98.00;;;;;;5039073;28;20092;-66
2023/02/11 05:13:19;;;;;;;50.40;25.67;;;-2.30;98.00;;;;;;5028453;28;20145;-66
2023/02/11 05:15:44;;;;;;;44.42;23.65;;;-2.20;98.00;;;;;;5038018;28;20040;-65
2023/02/11 05:18:10;;;;;;;40.85;23.40;;;-2.00;98.00;;;;;;5038337;28;20037;-65
2023/02/11 05:20:38;;;;;;;44.25;23.70;;;-1.90;98.00;;;;;;5025709;28;20152;-65
2023/02/11 05:23:04;;;;;;;45.13;24.13;;;-1.70;98.00;;;;;;5037453;28;20021;-65
2023/02/11 05:25:30;;;;;;;38.90;22.83;;;-1.60;98.00;;;;;;5021398;28;20339;-65
2023/02/11 05:27:55;;;;;;;50.00;24.27;;;-1.60;98.00;;;;;;5038473;28;20035;-68
2023/02/11 05:30:21;;;;;;;40.30;21.75;;;-1.60;98.00;;;;;;5019752;28;20055;-67
2023/02/11 05:32:47;;;;;;;37.92;21.48;;;-1.50;98.00;;;;;;5032486;28;20113;-67
2023/02/11 05:35:12;;;;;;;36.28;20.23;;;-1.40;98.00;;;;;;5037061;28;20334;-66
2023/02/11 05:37:38;;;;;;;35.78;19.88;;;-1.40;98.00;;;;;;5038042;28;20033;-66
2023/02/11 05:40:04;;;;;;;41.65;23.23;;;-1.40;98.00;;;;;;5038686;28;20026;-68
2023/02/11 05:42:29;;;;;;;49.08;24.25;;;-1.50;98.00;;;;;;5038562;28;20053;-66
2023/02/11 05:44:55;;;;;;;38.58;21.73;;;-1.60;98.00;;;;;;5019651;28;20057;-66
2023/02/11 05:47:21;;;;;;;31.42;18.88;;;-1.70;98.00;;;;;;5020402;28;20087;-66
2023/02/11 05:49:50;;;;;;;39.63;21.13;;;-1.50;98.00;;;;;;5037607;28;20426;-66
2023/02/11 05:52:16;;;;;;;28.58;15.63;;;-1.40;98.00;;;;;;5036682;28;20091;-64
2023/02/11 05:54:41;;;;;;;30.15;16.88;;;-1.40;98.00;;;;;;5036412;28;20367;-66
2023/02/11 05:57:07;;;;;;;28.08;15.48;;;-1.30;98.00;;;;;;5038707;28;20325;-66
2023/02/11 05:59:32;;;;;;;35.75;18.25;;;-1.20;98.00;;;;;;5037360;28;20108;-66
2023/02/11 06:01:58;;;;;;;29.15;15.82;;;-1.20;98.00;;;;;;5038630;28;20060;-66
2023/02/11 06:04:23;;;;;;;25.60;14.90;;;-1.30;98.00;;;;;;5038030;28;20030;-66
2023/02/11 06:06:49;;;;;;;32.38;17.85;;;-1.30;98.00;;;;;;5037110;28;20093;-67
2023/02/11 06:09:14;;;;;;;34.08;19.95;;;-1.40;98.00;;;;;;5038880;28;20025;-66
2023/02/11 06:11:40;;;;;;;31.42;17.80;;;-1.40;98.00;;;;;;5038542;28;20068;-66
2023/02/11 06:14:05;;;;;;;30.10;17.95;;;-1.30;98.00;;;;;;5038696;28;20037;-66
2023/02/11 06:16:31;;;;;;;35.20;21.67;;;-1.10;98.00;;;;;;5037384;28;20100;-66
2023/02/11 06:18:57;;;;;;;23.77;13.40;;;-0.70;98.00;;;;;;5038244;28;20029;-66
2023/02/11 06:21:22;;;;;;;26.95;15.77;;;-0.60;98.00;;;;;;5036003;28;20075;-66
2023/02/11 06:23:48;;;;;;;30.38;17.58;;;-0.60;98.00;;;;;;5037062;28;20087;-66
2023/02/11 06:26:20;;;;;;;30.50;17.67;;;-0.80;98.00;;;;;;5036721;28;20307;-66
2023/02/11 06:28:45;;;;;;;25.23;13.75;;;-1.00;98.00;;;;;;5036102;28;20037;-66
2023/02/11 06:31:12;;;;;;;23.75;12.35;;;-1.00;98.00;;;;;;5032921;28;20102;-66
2023/02/11 06:33:38;;;;;;;23.60;12.25;;;-0.80;98.00;;;;;;5037646;28;20048;-66
2023/02/11 06:36:10;;;;;;;23.40;13.05;;;-0.60;98.00;;;;;;5037666;28;21272;-66
2023/02/11 06:38:36;;;;;;;21.17;12.23;;;-0.60;98.00;;;;;;5036724;28;20030;-66
2023/02/11 06:41:02;;;;;;;18.63;9.98;;;-0.50;98.00;;;;;;5034731;28;20036;-65
2023/02/11 06:43:27;;;;;;;17.02;9.93;;;-0.40;98.00;;;;;;5034604;28;20410;-66
2023/02/11 06:45:54;;;;;;;17.63;9.05;;;-0.30;98.00;;;;;;5029136;28;20030;-65
2023/02/11 06:48:21;;;;;;;12.73;8.48;;;-0.10;98.00;;;;;;5025500;28;20041;-64
2023/02/11 06:50:46;;;;;;;12.18;8.52;;;0.10;98.00;;;;;;5035347;28;20322;-66
2023/02/11 06:53:12;;;;;;;19.67;12.23;;;0.30;98.00;;;;;;5034195;28;20066;-65
2023/02/11 06:55:37;;;;;;;23.33;12.93;;;0.30;98.00;;;;;;5036318;28;20230;-65
2023/02/11 06:58:03;;;;;;;23.23;13.70;;;0.00;98.00;;;;;;5041585;28;20056;-65
2023/02/11 07:00:29;;;;;;;23.65;14.23;;;-0.20;98.00;;;;;;5029432;28;20021;-66
2023/02/11 07:02:54;;;;;;;21.95;12.43;;;-0.30;98.00;;;;;;5032943;28;20033;-66
2023/02/11 07:05:20;;;;;;;17.17;10.25;;;-0.20;98.00;;;;;;5034581;28;20441;-65
2023/02/11 07:07:45;;;;;;;14.52;7.90;;;-0.10;98.00;;;;;;5032835;28;20100;-64
2023/02/11 07:10:11;;;;;;;14.95;8.15;;;0.10;98.00;;;;;;5036813;28;20445;-66
2023/02/11 07:12:37;;;;;;;19.42;11.45;;;0.30;98.00;;;;;;5033385;28;20038;-65
2023/02/11 07:15:03;;;;;;;21.40;13.35;;;0.40;98.00;;;;;;5032972;28;20029;-66
2023/02/11 07:17:28;;;;;;;19.85;12.13;;;0.40;98.00;;;;;;5021992;28;20605;-66
2023/02/11 07:19:54;;;;;;;22.27;12.93;;;0.50;98.00;;;;;;5035125;28;20033;-66
2023/02/11 07:22:20;;;;;;;39.78;22.92;;;0.60;98.00;;;;;;5037166;28;20351;-65
2023/02/11 07:24:45;;;;;;;46.00;28.23;;;0.70;98.00;;;;;;5036274;28;20083;-65
2023/02/11 07:27:11;;;;;;;26.13;15.10;;;0.70;98.00;;;;;;5026358;28;20322;-65
2023/02/11 07:29:41;;;;;;;22.75;13.60;;;0.70;98.00;;;;;;5032461;28;20040;-65
2023/02/11 07:32:06;;;;;;;24.95;15.40;;;0.70;98.00;;;;;;5039541;28;20068;-65
2023/02/11 07:34:32;;;;;;;23.35;14.25;;;0.70;98.00;;;;;;5037180;28;20648;-65
2023/02/11 07:36:58;;;;;;;24.08;13.35;;;0.60;98.00;;;;;;5035792;28;20033;-65
2023/02/11 07:39:26;;;;;;;26.67;14.45;;;0.60;98.00;;;;;;5023045;28;20424;-65
2023/02/11 07:41:52;;;;;;;20.80;13.10;;;0.60;98.00;;;;;;5035107;28;20026;-65
2023/02/11 07:44:18;;;;;;;21.38;12.55;;;0.60;98.00;;;;;;5021848;28;20040;-64
2023/02/11 07:46:44;;;;;;;22.20;12.57;;;0.70;98.00;;;;;;5027463;28;20025;-65
2023/02/11 07:49:10;;;;;;;25.65;14.48;;;0.90;98.00;;;;;;5026886;28;20021;-65
2023/02/11 07:51:36;;;;;;;21.20;12.75;;;1.20;98.00;;;;;;5033627;28;20018;-65
2023/02/11 07:54:02;;;;;;;18.65;10.85;;;1.40;98.00;;;;;;5032218;28;20037;-64
2023/02/11 07:56:28;;;;;;;20.17;12.32;;;1.50;98.00;;;;;;5035059;28;20128;-65
2023/02/11 07:58:55;;;;;;;21.42;13.38;;;1.60;98.00;;;;;;5036585;28;20022;-64
2023/02/11 08:01:27;;;;;;;23.17;13.68;;;1.70;98.00;;;;;;5032788;28;20409;-65
2023/02/11 08:03:54;;;;;;;23.50;13.85;;;1.60;98.00;;;;;;5036777;28;20028;-66
2023/02/11 08:06:21;;;;;;;24.88;15.32;;;1.70;98.00;;;;;;5035563;28;20431;-65
2023/02/11 08:08:47;;;;;;;18.15;10.93;;;1.90;98.00;;;;;;5035470;28;20064;-64
2023/02/11 08:11:16;;;;;;;20.35;11.50;;;2.10;98.00;;;;;;5036678;28;20018;-65
2023/02/11 08:13:42;;;;;;;23.30;15.10;;;2.50;98.00;;;;;;5035347;28;20040;-64
2023/02/11 08:16:08;;;;;;;19.80;12.57;;;2.90;97.80;;;;;;5034271;28;20045;-64
2023/02/11 08:18:34;;;;;;;17.90;11.15;;;3.20;96.70;;;;;;5017750;28;20022;-64
2023/02/11 08:21:08;;;;;;;21.17;12.50;;;3.60;95.20;;;;;;5035557;28;20299;-64
2023/02/11 08:23:39;;;;;;;17.23;10.52;;;3.60;93.90;;;;;;5033942;28;20116;-66
2023/02/11 08:26:07;;;;;;;17.02;10.77;;;3.50;94.00;;;;;;5021654;28;20441;-66
2023/02/11 08:28:38;;;;;;;17.25;10.90;;;3.30;93.80;;;;;;5032956;28;20418;-66
2023/02/11 08:31:13;;;;;;;17.50;10.93;;;3.30;94.30;;;;;;5029304;28;20026;-65
2023/02/11 08:33:41;;;;;;;21.08;14.32;;;3.70;93.60;;;;;;5029957;28;20060;-65
2023/02/11 08:36:12;;;;;;;21.30;14.23;;;4.10;92.80;;;;;;5033143;28;20053;-64
2023/02/11 08:38:38;;;;;;;23.10;13.20;;;4.10;92.10;;;;;;5034410;28;20022;-65
2023/02/11 08:41:03;;;;;;;16.80;11.10;;;4.00;92.30;;;;;;5053918;28;20033;-66
2023/02/11 08:43:29;;;;;;;16.17;9.75;;;3.90;93.10;;;;;;5027439;28;20049;-65
2023/02/11 08:45:55;;;;;;;12.55;7.68;;;3.80;93.70;;;;;;5034730;28;20021;-65
2023/02/11 08:48:20;;;;;;;10.60;6.38;;;3.70;93.60;;;;;;5032649;28;20033;-66
2023/02/11 08:50:46;;;;;;;10.18;5.70;;;4.10;94.50;;;;;;5035665;28;20091;-65
2023/02/11 08:53:11;;;;;;;9.75;5.10;;;5.10;93.10;;;;;;5016697;28;20318;-65
2023/02/11 08:55:37;;;;;;;14.25;7.40;;;6.40;89.80;;;;;;5018144;28;20103;-65
2023/02/11 08:58:02;;;;;;;12.40;6.35;;;7.90;84.20;;;;;;5034615;28;20030;-65
2023/02/11 09:00:28;;;;;;;11.25;6.85;;;9.10;80.80;;;;;;5034470;28;20026;-65
2023/02/11 09:02:54;;;;;;;15.80;9.70;;;10.30;77.40;;;;;;5031845;28;20033;-65
2023/02/11 09:05:21;;;;;;;16.20;9.35;;;11.40;73.50;;;;;;5027147;28;20071;-65
2023/02/11 09:07:46;;;;;;;15.73;10.25;;;11.60;71.10;;;;;;5034083;28;20439;-66
2023/02/11 09:10:12;;;;;;;18.95;11.45;;;11.70;69.50;;;;;;5035108;28;20056;-66
2023/02/11 09:12:37;;;;;;;16.17;10.38;;;11.80;70.00;;;;;;5030306;28;20291;-67
2023/02/11 09:15:03;;;;;;;16.00;10.05;;;12.30;68.20;;;;;;5041194;28;20094;-66
2023/02/11 09:17:29;;;;;;;16.63;12.20;;;13.00;66.40;;;;;;5034037;28;20041;-66
2023/02/11 09:19:54;;;;;;;16.80;11.25;;;12.90;66.00;;;;;;5035568;28;20028;-65
2023/02/11 09:22:20;;;;;;;14.90;9.88;;;13.20;66.60;;;;;;5032641;28;20026;-65
2023/02/11 09:24:45;;;;;;;14.23;9.85;;;13.20;65.00;;;;;;5033323;28;20065;-65
2023/02/11 09:27:11;;;;;;;14.88;9.70;;;13.10;64.60;;;;;;5024865;28;20037;-64
2023/02/11 09:29:37;;;;;;;14.95;9.82;;;11.70;66.10;;;;;;5032042;28;20033;-65
2023/02/11 09:32:02;;;;;;;17.90;10.43;;;10.60;68.30;;;;;;5028293;28;20029;-64
2023/02/11 09:34:28;;;;;;;21.85;12.80;;;9.70;70.20;;;;;;5034169;28;20105;-65
2023/02/11 09:36:53;;;;;;;17.17;11.43;;;8.80;72.30;;;;;;5034246;28;20107;-64
2023/02/11 09:39:19;;;;;;;18.90;12.27;;;7.80;74.80;;;;;;5035397;28;20421;-65
2023/02/11 09:42:09;;;;;;;19.35;11.85;;;6.90;76.70;;;;;;5034058;28;20096;-65
2023/02/11 09:44:36;;;;;;;14.25;9.13;;;6.70;79.20;;;;;;5031368;28;20029;-65
2023/02/11 09:47:05;;;;;;;14.60;9.52;;;8.10;78.30;;;;;;5034080;28;20045;-65
2023/02/11 09:49:47;;;;;;;18.50;10.98;;;9.90;74.40;;;;;;5033961;28;20048;-65
2023/02/11 09:52:34;;;;;;;17.15;10.02;;;11.70;68.70;;;;;;5033811;28;20490;-65
2023/02/11 09:55:13;;;;;;;19.75;11.50;;;13.10;65.10;;;;;;5016863;28;20057;-65
2023/02/11 09:57:39;;;;;;;18.67;11.48;;;13.30;63.40;;;;;;5033146;28;20414;-65
2023/02/11 10:00:51;;;;;;;18.67;10.93;;;13.10;63.30;;;;;;5031186;28;20033;-64
2023/02/11 10:03:25;;;;;;;17.70;10.43;;;12.70;64.70;;;;;;5031188;28;20087;-65
2023/02/11 10:06:00;;;;;;;17.67;10.55;;;13.20;63.70;;;;;;5035060;28;20422;-66
2023/02/11 10:08:44;;;;;;;15.38;10.02;;;13.80;63.50;;;;;;5035504;28;20025;-65
2023/02/11 10:11:23;;;;;;;14.90;9.43;;;14.40;62.70;;;;;;5038182;28;20029;-66
2023/02/11 10:14:09;;;;;;;17.17;10.27;;;14.10;61.80;;;;;;5037404;28;20026;-65
2023/02/11 10:16:58;;;;;;;17.25;9.20;;;14.10;60.50;;;;;;5037379;28;20029;-66
2023/02/11 10:19:47;;;;;;;16.05;9.50;;;13.70;61.90;;;;;;5037702;28;20442;-66
2023/02/11 10:22:31;;;;;;;14.85;9.10;;;14.20;62.50;;;;;;5038613;28;20517;-66
2023/02/11 10:24:59;;;;;;;17.40;10.75;;;14.20;61.40;;;;;;5036842;28;20326;-67
2023/02/11 10:27:33;;;;;;;19.08;10.73;;;14.00;61.10;;;;;;5036747;28;20335;-67
2023/02/11 10:30:05;;;;;;;;;;;13.40;61.70;;;;;;5036728;28;20303;-67
2023/02/11 10:32:33;;;;;;;16.92;9.88;;;13.00;63.00;;;;;;5037483;28;20384;-67
2023/02/11 10:35:11;;;;;;;17.58;10.13;;;13.20;61.90;;;;;;5038271;28;20033;-66
2023/02/11 10:37:37;;;;;;;19.30;10.73;;;12.00;64.80;;;;;;5033827;28;20452;-67
2023/02/11 10:40:02;;;;;;;19.10;11.00;;;12.10;64.70;;;;;;5036741;28;20108;-66
2023/02/11 10:42:29;;;;;;;17.05;9.77;;;11.90;65.00;;;;;;5035824;28;20032;-66
2023/02/11 10:44:59;;;;;;;17.58;10.15;;;11.60;65.40;;;;;;5036018;28;20080;-66
2023/02/11 10:47:29;;;;;;;16.75;9.73;;;11.50;65.70;;;;;;5037675;28;20038;-66
2023/02/11 10:50:02;;;;;;;14.88;8.80;;;11.70;66.10;;;;;;5037362;28;20039;-65
2023/02/11 10:52:29;;;;;;;15.77;9.32;;;11.90;65.70;;;;;;5036268;28;20026;-65
2023/02/11 10:55:12;;;;;;;17.10;9.85;;;11.50;65.80;;;;;;5037613;28;20419;-64
2023/02/11 10:57:51;;;;;;;19.73;10.73;;;11.40;66.70;;;;;;5035821;28;20509;-65
2023/02/11 11:00:16;;;;;;;19.23;11.23;;;10.60;67.60;;;;;;5034705;28;20026;-65
2023/02/11 11:02:43;;;;;;;21.38;11.75;;;10.30;68.90;;;;;;5035327;28;20104;-65
2023/02/11 11:05:18;;;;;;;22.85;12.32;;;9.70;70.00;;;;;;5036917;28;20025;-65
2023/02/11 11:08:05;;;;;;;20.08;11.18;;;9.30;71.60;;;;;;5035756;28;20116;-64
2023/02/11 11:10:42;;;;;;;20.45;11.63;;;9.00;72.80;;;;;;5017863;28;20029;-65
2023/02/11 11:13:30;;;;;;;24.55;14.00;;;8.70;73.30;;;;;;5016653;28;20427;-64
2023/02/11 11:16:11;;;;;;;24.02;13.52;;;8.10;74.30;;;;;;5035346;28;20061;-64
2023/02/11 11:18:37;;;;;;;24.50;13.77;;;8.20;75.40;;;;;;5036897;28;20021;-66
2023/02/11 11:21:17;;;;;;;23.45;13.57;;;8.90;74.90;;;;;;5037605;28;20095;-65
2023/02/11 11:23:49;;;;;;;22.50;12.82;;;9.50;73.20;;;;;;5036345;28;20338;-67
2023/02/11 11:26:16;;;;;;;20.42;12.65;;;10.00;72.10;;;;;;5037299;28;20030;-67
2023/02/11 11:28:56;;;;;;;21.02;12.60;;;10.70;71.60;;;;;;5036018;28;20029;-67
2023/02/11 11:31:28;;;;;;;18.25;10.82;;;10.90;69.70;;;;;;5035204;28;20346;-66
2023/02/11 11:33:57;;;;;;;19.83;11.00;;;10.90;70.70;;;;;;5036348;28;20045;-66
2023/02/11 11:36:32;;;;;;;20.38;10.77;;;11.00;70.30;;;;;;5035198;28;20136;-66
2023/02/11 11:39:02;;;;;;;16.23;9.90;;;10.70;70.10;;;;;;5036029;28;20080;-66
2023/02/11 11:41:31;;;;;;;16.23;10.30;;;10.40;71.10;;;;;;5035525;28;20033;-66
2023/02/11 11:43:58;;;;;;;15.10;9.30;;;10.40;72.00;;;;;;5036023;28;20425;-65
2023/02/11 11:46:30;;;;;;;16.98;9.25;;;10.60;70.70;;;;;;5030493;28;20028;-65
2023/02/11 11:49:20;;;;;;;17.13;9.07;;;10.50;70.90;;;;;;5035971;28;20366;-65
2023/02/11 11:52:14;;;;;;;18.02;9.82;;;10.60;70.60;;;;;;5034271;28;20045;-65
2023/02/11 11:54:44;;;;;;;16.55;8.90;;;11.20;70.50;;;;;;5035801;28;20035;-65
2023/02/11 11:57:15;;;;;;;14.95;8.75;;;11.40;69.80;;;;;;5036627;28;20017;-65
2023/02/11 11:59:40;;;;;;;14.95;8.73;;;11.80;69.10;;;;;;5035661;28;20017;-66
2023/02/11 12:02:36;;;;;;;14.73;8.02;;;11.70;68.10;;;;;;5036556;28;20036;-64
2023/02/11 12:05:09;;;;;;;13.88;8.30;;;11.50;68.80;;;;;;5034925;28;20100;-66
2023/02/11 12:08:07;;;;;;;14.77;7.80;;;11.50;68.90;;;;;;5036331;28;20083;-64
2023/02/11 12:11:00;;;;;;;12.15;8.00;;;12.00;68.20;;;;;;5036380;28;20037;-64
2023/02/11 12:13:50;;;;;;;14.23;8.07;;;12.10;67.70;;;;;;5032805;28;20427;-64
2023/02/11 12:16:25;;;;;;;13.13;7.38;;;12.10;68.20;;;;;;5015583;28;20030;-64
2023/02/11 12:19:09;;;;;;;15.07;7.90;;;11.90;68.00;;;;;;5016346;28;20319;-64
2023/02/11 12:21:50;;;;;;;12.02;6.88;;;12.10;67.80;;;;;;5020011;28;20026;-64
2023/02/11 12:24:28;;;;;;;11.98;6.78;;;11.90;67.60;;;;;;5030107;28;20034;-64
2023/02/11 12:27:02;;;;;;;12.90;7.75;;;12.30;67.60;;;;;;5034401;28;20103;-64
2023/02/11 12:30:05;;;;;;;15.43;7.45;;;12.20;66.30;;;;;;5030101;28;20225;-65
2023/02/11 12:32:38;;;;;;;14.55;8.13;;;12.20;67.10;;;;;;5035953;28;20431;-65
2023/02/11 12:35:28;;;;;;;13.48;6.68;;;11.90;67.50;;;;;;5034779;28;20038;-65
2023/02/11 12:38:09;;;;;;;13.90;7.13;;;11.30;67.30;;;;;;5032680;28;20100;-65
2023/02/11 12:40:43;;;;;;;13.32;7.57;;;11.10;67.10;;;;;;5026813;28;20018;-65
2023/02/11 12:43:15;;;;;;;13.00;6.95;;;11.40;68.00;;;;;;5036051;28;20065;-66
2023/02/11 12:46:19;;;;;;;12.20;6.93;;;11.90;66.60;;;;;;5034823;28;20025;-65
2023/02/11 12:49:10;;;;;;;12.73;7.68;;;12.00;65.60;;;;;;5036047;28;20064;-65
2023/02/11 12:52:03;;;;;;;13.05;7.53;;;11.70;66.50;;;;;;5035484;28;20033;-64